Meteo Giornale » Osservazioni meteo Stati Uniti (USA) » Newton
ore: 13:56 - Osservazioni Meteo Newton
Lat. 38° 3' N Lon. 97° 17' W Alt. 467 metri s.l.m.
38 °C
Sereno
Temp. 24 Ore
25 °C
41 °C
Sud/Sud-Ovest
22.2 Km/h
Dew point 17 °C
Umidità 29 %
Visibilità 10 Km
Il sole sorge alle ore 06:58
Il sole tramonta alle ore 20:00
| Data e Ora | Cielo e Fenomeni | T °C | DP °C | Um. % | Pres. hPa | Vis. km | Vento km/h | |
|---|---|---|---|---|---|---|---|---|
| Oggi h: 13:56 | Sereno | 38 | 17 | 29 | 1015 | 10 | S/SO 22.2 | |
| Oggi h: 12:56 | Sereno | 37 | 17 | 30 | 1015 | 10 | S/SO 29.6 | |
| Oggi h: 11:56 | Sereno | 35 | 17 | 34 | 1016 | 10 | S 27.8 | |
| Oggi h: 10:56 | Sereno | 33 | 17 | 38 | 1016 | 10 | S 20.3 | |
| Oggi h: 09:56 | Sereno | 29 | 16 | 45 | 1016 | 10 | S/SO 16.7 | |
| Oggi h: 08:56 | Sereno | 27 | 16 | 50 | 1017 | 10 | S 7.4 | |
| Oggi h: 07:56 | Foschia | 25 | 16 | 57 | 1016 | 10 | N 5.5 | |
| Oggi h: 06:56 | Sereno | 25 | 16 | 57 | 1015 | 10 | S 16.7 | |
| Oggi h: 05:56 | Sereno | 26 | 16 | 54 | 1015 | 10 | S/SO 16.7 | |
| Oggi h: 04:56 | Sereno | 28 | 15 | 45 | 1015 | 10 | SO 18.5 | |
| Oggi h: 03:56 | Sereno | 28 | 16 | 48 | 1014 | 10 | S/SO 25.9 | |
| Oggi h: 02:56 | Sereno | 29 | 16 | 45 | 1013 | 10 | S/SO 27.8 | |
| Oggi h: 01:56 | Sereno | 29 | 16 | 45 | 1014 | 10 | S 24 | |
| Oggi h: 00:56 | Sereno | 29 | 15 | 42 | 1013 | 10 | S 22.2 | |
| Ieri h: 23:56 | Sereno | 31 | 15 | 37 | 1012 | 10 | S 25.9 | |
| Ieri h: 22:56 | Sereno | 31 | 16 | 40 | 1012 | 10 | S 25.9 | |
| Ieri h: 21:56 | Sereno | 32 | 15 | 35 | 1012 | 10 | S/SE 20.3 | |
| Ieri h: 20:56 | Sereno | 33 | 16 | 36 | 1011 | 10 | S 20.3 | |
| Ieri h: 19:56 | Sereno | 35 | 17 | 34 | 1010 | 10 | S 25.9 | |
| Ieri h: 18:56 | Sereno | 38 | 16 | 27 | 1010 | 10 | S 25.9 | |
| Ieri h: 17:56 | Sereno | 39 | 16 | 26 | 1010 | 10 | S 31.5 | |
| Ieri h: 16:56 | Sereno | 40 | 16 | 24 | 1010 | 10 | S/SO 37 | |
| Ieri h: 15:56 | Sereno | 41 | 16 | 23 | 1010 | 10 | S/SO 40.7 | |
| Ieri h: 14:56 | Sereno | 40 | 17 | 26 | 1011 | 10 | S/SO 35.2 | |



